sensor_id;sensor_type;location;lat;lon;timestamp;P1;durP1;ratioP1;P2;durP2;ratioP2
30553;SDS011;17335;50.720;7.452;2024-03-17T00:01:05;8.98;;;3.45;;
30553;SDS011;17335;50.720;7.452;2024-03-17T00:03:31;11.55;;;3.00;;
30553;SDS011;17335;50.720;7.452;2024-03-17T00:06:00;12.15;;;4.00;;
30553;SDS011;17335;50.720;7.452;2024-03-17T00:08:26;7.25;;;3.40;;
30553;SDS011;17335;50.720;7.452;2024-03-17T00:10:53;7.25;;;3.72;;
30553;SDS011;17335;50.720;7.452;2024-03-17T00:13:20;7.82;;;3.92;;
30553;SDS011;17335;50.720;7.452;2024-03-17T00:15:47;10.65;;;5.20;;
30553;SDS011;17335;50.720;7.452;2024-03-17T00:18:13;11.25;;;5.13;;
30553;SDS011;17335;50.720;7.452;2024-03-17T00:20:39;12.25;;;5.45;;
30553;SDS011;17335;50.720;7.452;2024-03-17T00:23:05;14.18;;;5.35;;
30553;SDS011;17335;50.720;7.452;2024-03-17T00:25:35;10.30;;;4.53;;
30553;SDS011;17335;50.720;7.452;2024-03-17T00:28:01;10.15;;;5.28;;
30553;SDS011;17335;50.720;7.452;2024-03-17T00:30:27;8.75;;;5.72;;
30553;SDS011;17335;50.720;7.452;2024-03-17T00:32:53;9.60;;;5.03;;
30553;SDS011;17335;50.720;7.452;2024-03-17T00:35:18;10.45;;;5.13;;
30553;SDS011;17335;50.720;7.452;2024-03-17T00:37:47;8.50;;;4.30;;
30553;SDS011;17335;50.720;7.452;2024-03-17T00:40:13;14.27;;;5.25;;
30553;SDS011;17335;50.720;7.452;2024-03-17T00:42:39;9.70;;;4.95;;
30553;SDS011;17335;50.720;7.452;2024-03-17T00:45:06;10.13;;;5.20;;
30553;SDS011;17335;50.720;7.452;2024-03-17T00:47:32;8.88;;;5.25;;
30553;SDS011;17335;50.720;7.452;2024-03-17T00:49:58;10.38;;;4.60;;
30553;SDS011;17335;50.720;7.452;2024-03-17T00:52:23;8.05;;;4.05;;
30553;SDS011;17335;50.720;7.452;2024-03-17T00:54:49;12.23;;;4.70;;
30553;SDS011;17335;50.720;7.452;2024-03-17T00:57:15;8.13;;;4.70;;
30553;SDS011;17335;50.720;7.452;2024-03-17T00:59:41;12.00;;;5.07;;
30553;SDS011;17335;50.720;7.452;2024-03-17T01:02:10;11.52;;;5.03;;
30553;SDS011;17335;50.720;7.452;2024-03-17T01:04:38;9.57;;;4.32;;
30553;SDS011;17335;50.720;7.452;2024-03-17T01:07:05;13.40;;;4.70;;
30553;SDS011;17335;50.720;7.452;2024-03-17T01:09:31;7.75;;;4.35;;
30553;SDS011;17335;50.720;7.452;2024-03-17T01:11:56;11.25;;;4.57;;
30553;SDS011;17335;50.720;7.452;2024-03-17T01:14:22;9.40;;;4.80;;
30553;SDS011;17335;50.720;7.452;2024-03-17T01:16:48;8.93;;;4.20;;
30553;SDS011;17335;50.720;7.452;2024-03-17T01:19:15;8.23;;;4.60;;
30553;SDS011;17335;50.720;7.452;2024-03-17T01:21:41;8.70;;;4.40;;
30553;SDS011;17335;50.720;7.452;2024-03-17T01:24:07;10.13;;;4.55;;
30553;SDS011;17335;50.720;7.452;2024-03-17T01:26:32;9.07;;;4.68;;
30553;SDS011;17335;50.720;7.452;2024-03-17T01:28:58;9.07;;;4.63;;
30553;SDS011;17335;50.720;7.452;2024-03-17T01:31:23;9.10;;;4.72;;
30553;SDS011;17335;50.720;7.452;2024-03-17T01:33:50;10.77;;;4.65;;
30553;SDS011;17335;50.720;7.452;2024-03-17T01:36:15;10.35;;;3.88;;
30553;SDS011;17335;50.720;7.452;2024-03-17T01:38:41;7.63;;;4.20;;
30553;SDS011;17335;50.720;7.452;2024-03-17T01:41:07;7.57;;;4.47;;
30553;SDS011;17335;50.720;7.452;2024-03-17T01:43:32;8.43;;;4.30;;
30553;SDS011;17335;50.720;7.452;2024-03-17T01:45:58;11.15;;;4.72;;
30553;SDS011;17335;50.720;7.452;2024-03-17T01:48:24;9.60;;;4.50;;
30553;SDS011;17335;50.720;7.452;2024-03-17T01:50:51;7.10;;;3.47;;
30553;SDS011;17335;50.720;7.452;2024-03-17T01:53:20;8.57;;;4.40;;
30553;SDS011;17335;50.720;7.452;2024-03-17T01:55:49;6.93;;;4.15;;
30553;SDS011;17335;50.720;7.452;2024-03-17T01:58:15;9.80;;;5.57;;
30553;SDS011;17335;50.720;7.452;2024-03-17T02:03:11;10.23;;;4.25;;
30553;SDS011;17335;50.720;7.452;2024-03-17T02:05:38;12.07;;;5.47;;
30553;SDS011;17335;50.720;7.452;2024-03-17T02:08:04;8.77;;;4.57;;
30553;SDS011;17335;50.720;7.452;2024-03-17T02:10:32;10.55;;;5.35;;
30553;SDS011;17335;50.720;7.452;2024-03-17T02:12:58;8.50;;;4.65;;
30553;SDS011;17335;50.720;7.452;2024-03-17T02:15:24;12.48;;;5.00;;
30553;SDS011;17335;50.720;7.452;2024-03-17T02:17:50;15.07;;;6.13;;
30553;SDS011;17335;50.720;7.452;2024-03-17T02:20:16;10.20;;;5.57;;
30553;SDS011;17335;50.720;7.452;2024-03-17T02:22:41;10.15;;;5.13;;
30553;SDS011;17335;50.720;7.452;2024-03-17T02:25:07;13.10;;;5.53;;
30553;SDS011;17335;50.720;7.452;2024-03-17T02:27:36;11.55;;;5.20;;
30553;SDS011;17335;50.720;7.452;2024-03-17T02:30:03;11.98;;;5.25;;
30553;SDS011;17335;50.720;7.452;2024-03-17T02:32:35;9.93;;;4.45;;
30553;SDS011;17335;50.720;7.452;2024-03-17T02:35:01;9.27;;;5.18;;
30553;SDS011;17335;50.720;7.452;2024-03-17T02:37:27;9.60;;;4.88;;
30553;SDS011;17335;50.720;7.452;2024-03-17T02:39:52;11.10;;;5.18;;
30553;SDS011;17335;50.720;7.452;2024-03-17T02:42:18;12.90;;;5.13;;
30553;SDS011;17335;50.720;7.452;2024-03-17T02:44:44;10.55;;;5.05;;
30553;SDS011;17335;50.720;7.452;2024-03-17T02:47:10;13.82;;;5.78;;
30553;SDS011;17335;50.720;7.452;2024-03-17T02:49:39;9.60;;;4.97;;
30553;SDS011;17335;50.720;7.452;2024-03-17T02:52:08;10.77;;;5.28;;
30553;SDS011;17335;50.720;7.452;2024-03-17T02:54:35;11.25;;;5.50;;
30553;SDS011;17335;50.720;7.452;2024-03-17T02:57:02;16.92;;;5.07;;
30553;SDS011;17335;50.720;7.452;2024-03-17T02:59:28;10.30;;;5.35;;
30553;SDS011;17335;50.720;7.452;2024-03-17T03:01:53;12.73;;;5.93;;
30553;SDS011;17335;50.720;7.452;2024-03-17T03:04:19;11.95;;;5.70;;
30553;SDS011;17335;50.720;7.452;2024-03-17T03:06:45;12.05;;;5.65;;
30553;SDS011;17335;50.720;7.452;2024-03-17T03:09:11;9.70;;;5.25;;
30553;SDS011;17335;50.720;7.452;2024-03-17T03:11:40;12.95;;;5.63;;
30553;SDS011;17335;50.720;7.452;2024-03-17T03:14:06;11.10;;;5.43;;
30553;SDS011;17335;50.720;7.452;2024-03-17T03:16:32;13.57;;;5.75;;
30553;SDS011;17335;50.720;7.452;2024-03-17T03:18:58;13.48;;;5.85;;
30553;SDS011;17335;50.720;7.452;2024-03-17T03:21:24;26.20;;;7.47;;
30553;SDS011;17335;50.720;7.452;2024-03-17T03:23:49;11.30;;;5.07;;
30553;SDS011;17335;50.720;7.452;2024-03-17T03:26:15;13.00;;;6.07;;
30553;SDS011;17335;50.720;7.452;2024-03-17T03:28:40;11.23;;;5.40;;
30553;SDS011;17335;50.720;7.452;2024-03-17T03:31:06;13.13;;;5.57;;
30553;SDS011;17335;50.720;7.452;2024-03-17T03:33:38;11.55;;;5.88;;
30553;SDS011;17335;50.720;7.452;2024-03-17T03:36:11;13.25;;;6.63;;
30553;SDS011;17335;50.720;7.452;2024-03-17T03:38:38;19.00;;;5.60;;
30553;SDS011;17335;50.720;7.452;2024-03-17T03:41:07;9.80;;;5.63;;
30553;SDS011;17335;50.720;7.452;2024-03-17T03:43:34;12.93;;;5.65;;
30553;SDS011;17335;50.720;7.452;2024-03-17T03:46:00;24.67;;;6.32;;
30553;SDS011;17335;50.720;7.452;2024-03-17T03:48:26;11.27;;;5.35;;
30553;SDS011;17335;50.720;7.452;2024-03-17T03:50:52;13.23;;;5.10;;
30553;SDS011;17335;50.720;7.452;2024-03-17T03:53:17;11.25;;;5.38;;
30553;SDS011;17335;50.720;7.452;2024-03-17T03:55:43;11.90;;;5.30;;
30553;SDS011;17335;50.720;7.452;2024-03-17T03:58:08;8.93;;;4.53;;
30553;SDS011;17335;50.720;7.452;2024-03-17T04:00:34;11.45;;;5.50;;
30553;SDS011;17335;50.720;7.452;2024-03-17T04:02:59;13.25;;;5.82;;
30553;SDS011;17335;50.720;7.452;2024-03-17T04:05:27;14.82;;;5.82;;
30553;SDS011;17335;50.720;7.452;2024-03-17T04:07:53;14.40;;;4.80;;
30553;SDS011;17335;50.720;7.452;2024-03-17T04:10:19;14.68;;;5.35;;
30553;SDS011;17335;50.720;7.452;2024-03-17T04:12:45;11.45;;;4.45;;
30553;SDS011;17335;50.720;7.452;2024-03-17T04:15:11;29.85;;;5.28;;
30553;SDS011;17335;50.720;7.452;2024-03-17T04:17:37;10.50;;;5.20;;
30553;SDS011;17335;50.720;7.452;2024-03-17T04:20:03;10.30;;;5.32;;
30553;SDS011;17335;50.720;7.452;2024-03-17T04:22:33;15.27;;;5.65;;
30553;SDS011;17335;50.720;7.452;2024-03-17T04:24:59;12.75;;;5.22;;
30553;SDS011;17335;50.720;7.452;2024-03-17T04:27:25;10.98;;;5.97;;
30553;SDS011;17335;50.720;7.452;2024-03-17T04:29:53;9.52;;;4.72;;
30553;SDS011;17335;50.720;7.452;2024-03-17T04:32:21;12.93;;;5.65;;
30553;SDS011;17335;50.720;7.452;2024-03-17T04:34:47;12.00;;;5.30;;
30553;SDS011;17335;50.720;7.452;2024-03-17T04:37:13;9.85;;;5.18;;
30553;SDS011;17335;50.720;7.452;2024-03-17T04:39:39;10.40;;;5.30;;
30553;SDS011;17335;50.720;7.452;2024-03-17T04:42:09;12.43;;;6.00;;
30553;SDS011;17335;50.720;7.452;2024-03-17T04:44:35;14.57;;;5.35;;
30553;SDS011;17335;50.720;7.452;2024-03-17T04:47:01;10.70;;;5.20;;
30553;SDS011;17335;50.720;7.452;2024-03-17T04:49:32;11.63;;;5.78;;
30553;SDS011;17335;50.720;7.452;2024-03-17T04:52:01;14.10;;;5.35;;
30553;SDS011;17335;50.720;7.452;2024-03-17T04:54:26;14.30;;;5.95;;
30553;SDS011;17335;50.720;7.452;2024-03-17T04:56:52;12.93;;;5.45;;
30553;SDS011;17335;50.720;7.452;2024-03-17T04:59:17;15.32;;;5.82;;
30553;SDS011;17335;50.720;7.452;2024-03-17T05:01:43;12.43;;;6.75;;
30553;SDS011;17335;50.720;7.452;2024-03-17T05:04:08;11.20;;;5.72;;
30553;SDS011;17335;50.720;7.452;2024-03-17T05:06:34;10.45;;;5.55;;
30553;SDS011;17335;50.720;7.452;2024-03-17T05:09:00;11.77;;;6.05;;
30553;SDS011;17335;50.720;7.452;2024-03-17T05:11:26;17.33;;;6.60;;
30553;SDS011;17335;50.720;7.452;2024-03-17T05:13:52;12.20;;;5.60;;
30553;SDS011;17335;50.720;7.452;2024-03-17T05:16:17;12.13;;;5.75;;
30553;SDS011;17335;50.720;7.452;2024-03-17T05:18:43;14.13;;;5.55;;
30553;SDS011;17335;50.720;7.452;2024-03-17T05:21:08;10.38;;;5.47;;
30553;SDS011;17335;50.720;7.452;2024-03-17T05:23:35;13.95;;;5.40;;
30553;SDS011;17335;50.720;7.452;2024-03-17T05:26:02;16.65;;;6.22;;
30553;SDS011;17335;50.720;7.452;2024-03-17T05:28:29;14.18;;;5.95;;
30553;SDS011;17335;50.720;7.452;2024-03-17T05:30:55;11.52;;;5.38;;
30553;SDS011;17335;50.720;7.452;2024-03-17T05:33:22;10.63;;;5.20;;
30553;SDS011;17335;50.720;7.452;2024-03-17T05:38:20;13.50;;;6.68;;
30553;SDS011;17335;50.720;7.452;2024-03-17T05:40:56;10.90;;;5.78;;
30553;SDS011;17335;50.720;7.452;2024-03-17T05:43:25;14.70;;;5.75;;
30553;SDS011;17335;50.720;7.452;2024-03-17T05:45:52;12.88;;;6.20;;
30553;SDS011;17335;50.720;7.452;2024-03-17T05:48:19;11.98;;;5.55;;
30553;SDS011;17335;50.720;7.452;2024-03-17T05:50:45;11.45;;;5.45;;
30553;SDS011;17335;50.720;7.452;2024-03-17T05:53:11;15.43;;;7.00;;
30553;SDS011;17335;50.720;7.452;2024-03-17T05:55:37;12.98;;;5.75;;
30553;SDS011;17335;50.720;7.452;2024-03-17T05:58:03;20.48;;;7.05;;
30553;SDS011;17335;50.720;7.452;2024-03-17T06:00:29;11.38;;;5.57;;
30553;SDS011;17335;50.720;7.452;2024-03-17T06:02:56;11.38;;;6.28;;
30553;SDS011;17335;50.720;7.452;2024-03-17T06:05:22;14.25;;;6.40;;
30553;SDS011;17335;50.720;7.452;2024-03-17T06:07:48;15.85;;;6.70;;
30553;SDS011;17335;50.720;7.452;2024-03-17T06:10:13;10.77;;;6.28;;
30553;SDS011;17335;50.720;7.452;2024-03-17T06:12:39;14.23;;;7.40;;
30553;SDS011;17335;50.720;7.452;2024-03-17T06:15:05;17.10;;;7.88;;
30553;SDS011;17335;50.720;7.452;2024-03-17T06:17:31;16.15;;;6.90;;
30553;SDS011;17335;50.720;7.452;2024-03-17T06:19:57;13.38;;;5.97;;
30553;SDS011;17335;50.720;7.452;2024-03-17T06:22:23;15.68;;;7.13;;
30553;SDS011;17335;50.720;7.452;2024-03-17T06:24:49;14.30;;;6.15;;
30553;SDS011;17335;50.720;7.452;2024-03-17T06:27:15;19.73;;;7.28;;
30553;SDS011;17335;50.720;7.452;2024-03-17T06:29:41;22.98;;;7.50;;
30553;SDS011;17335;50.720;7.452;2024-03-17T06:32:08;15.80;;;6.75;;
30553;SDS011;17335;50.720;7.452;2024-03-17T06:34:34;16.27;;;7.15;;
30553;SDS011;17335;50.720;7.452;2024-03-17T06:36:59;21.73;;;8.68;;
30553;SDS011;17335;50.720;7.452;2024-03-17T06:39:25;16.98;;;7.70;;
30553;SDS011;17335;50.720;7.452;2024-03-17T06:41:51;22.42;;;8.05;;
30553;SDS011;17335;50.720;7.452;2024-03-17T06:44:17;24.75;;;9.25;;
30553;SDS011;17335;50.720;7.452;2024-03-17T06:46:43;22.77;;;9.18;;
30553;SDS011;17335;50.720;7.452;2024-03-17T06:49:12;20.58;;;8.15;;
30553;SDS011;17335;50.720;7.452;2024-03-17T06:51:37;18.23;;;8.70;;
30553;SDS011;17335;50.720;7.452;2024-03-17T06:54:03;24.80;;;8.50;;
30553;SDS011;17335;50.720;7.452;2024-03-17T06:56:29;18.90;;;8.30;;
30553;SDS011;17335;50.720;7.452;2024-03-17T06:58:54;19.20;;;8.82;;
30553;SDS011;17335;50.720;7.452;2024-03-17T07:01:20;20.10;;;8.48;;
30553;SDS011;17335;50.720;7.452;2024-03-17T07:03:46;17.13;;;8.25;;
30553;SDS011;17335;50.720;7.452;2024-03-17T07:06:11;18.52;;;8.48;;
30553;SDS011;17335;50.720;7.452;2024-03-17T07:08:37;23.60;;;9.65;;
30553;SDS011;17335;50.720;7.452;2024-03-17T07:11:06;18.75;;;7.82;;
30553;SDS011;17335;50.720;7.452;2024-03-17T07:13:33;24.15;;;7.95;;
30553;SDS011;17335;50.720;7.452;2024-03-17T07:16:00;21.10;;;8.82;;
30553;SDS011;17335;50.720;7.452;2024-03-17T07:18:27;18.00;;;7.82;;
30553;SDS011;17335;50.720;7.452;2024-03-17T07:21:00;17.38;;;8.13;;
30553;SDS011;17335;50.720;7.452;2024-03-17T07:23:29;21.65;;;7.68;;
30553;SDS011;17335;50.720;7.452;2024-03-17T07:25:56;22.30;;;8.85;;
30553;SDS011;17335;50.720;7.452;2024-03-17T07:28:22;17.25;;;8.05;;
30553;SDS011;17335;50.720;7.452;2024-03-17T07:30:58;16.83;;;7.60;;
30553;SDS011;17335;50.720;7.452;2024-03-17T07:33:27;18.90;;;7.70;;
30553;SDS011;17335;50.720;7.452;2024-03-17T07:35:54;16.85;;;7.97;;
30553;SDS011;17335;50.720;7.452;2024-03-17T07:38:26;19.90;;;7.90;;
30553;SDS011;17335;50.720;7.452;2024-03-17T07:41:05;16.45;;;7.03;;
30553;SDS011;17335;50.720;7.452;2024-03-17T07:43:34;12.63;;;6.60;;
30553;SDS011;17335;50.720;7.452;2024-03-17T07:46:03;18.15;;;7.88;;
30553;SDS011;17335;50.720;7.452;2024-03-17T07:48:36;18.02;;;8.07;;
30553;SDS011;17335;50.720;7.452;2024-03-17T07:51:03;16.73;;;7.45;;
30553;SDS011;17335;50.720;7.452;2024-03-17T07:53:31;14.15;;;7.47;;
30553;SDS011;17335;50.720;7.452;2024-03-17T07:55:58;16.40;;;7.65;;
30553;SDS011;17335;50.720;7.452;2024-03-17T07:58:24;14.45;;;6.60;;
30553;SDS011;17335;50.720;7.452;2024-03-17T08:00:51;16.42;;;6.75;;
30553;SDS011;17335;50.720;7.452;2024-03-17T08:03:18;17.83;;;7.68;;
30553;SDS011;17335;50.720;7.452;2024-03-17T08:05:47;14.48;;;6.20;;
30553;SDS011;17335;50.720;7.452;2024-03-17T08:08:14;17.33;;;7.43;;
30553;SDS011;17335;50.720;7.452;2024-03-17T08:10:42;15.50;;;7.30;;
30553;SDS011;17335;50.720;7.452;2024-03-17T08:13:07;13.77;;;7.35;;
30553;SDS011;17335;50.720;7.452;2024-03-17T08:15:34;14.23;;;6.82;;
30553;SDS011;17335;50.720;7.452;2024-03-17T08:18:00;15.45;;;6.18;;
30553;SDS011;17335;50.720;7.452;2024-03-17T08:20:25;14.60;;;7.05;;
30553;SDS011;17335;50.720;7.452;2024-03-17T08:22:51;13.05;;;6.97;;
30553;SDS011;17335;50.720;7.452;2024-03-17T08:25:17;17.83;;;6.70;;
30553;SDS011;17335;50.720;7.452;2024-03-17T08:27:43;15.23;;;7.18;;
30553;SDS011;17335;50.720;7.452;2024-03-17T08:30:08;15.88;;;6.32;;
30553;SDS011;17335;50.720;7.452;2024-03-17T08:32:38;15.15;;;6.75;;
30553;SDS011;17335;50.720;7.452;2024-03-17T08:35:04;17.15;;;7.95;;
30553;SDS011;17335;50.720;7.452;2024-03-17T08:37:31;13.40;;;5.80;;
30553;SDS011;17335;50.720;7.452;2024-03-17T08:39:57;15.52;;;6.55;;
30553;SDS011;17335;50.720;7.452;2024-03-17T08:42:23;15.48;;;6.53;;
30553;SDS011;17335;50.720;7.452;2024-03-17T08:44:49;18.38;;;6.97;;
30553;SDS011;17335;50.720;7.452;2024-03-17T08:47:14;13.30;;;6.63;;
30553;SDS011;17335;50.720;7.452;2024-03-17T08:49:40;13.60;;;6.28;;
30553;SDS011;17335;50.720;7.452;2024-03-17T08:52:06;12.55;;;5.53;;
30553;SDS011;17335;50.720;7.452;2024-03-17T08:54:32;13.73;;;5.70;;
30553;SDS011;17335;50.720;7.452;2024-03-17T08:56:58;10.60;;;5.15;;
30553;SDS011;17335;50.720;7.452;2024-03-17T08:59:23;13.95;;;5.70;;
30553;SDS011;17335;50.720;7.452;2024-03-17T09:01:49;10.75;;;5.10;;
30553;SDS011;17335;50.720;7.452;2024-03-17T09:04:14;13.98;;;5.18;;
30553;SDS011;17335;50.720;7.452;2024-03-17T09:06:40;13.32;;;5.50;;
30553;SDS011;17335;50.720;7.452;2024-03-17T09:09:06;10.82;;;5.30;;
30553;SDS011;17335;50.720;7.452;2024-03-17T09:11:33;10.52;;;4.70;;
30553;SDS011;17335;50.720;7.452;2024-03-17T09:13:58;13.73;;;4.78;;
30553;SDS011;17335;50.720;7.452;2024-03-17T09:16:24;13.40;;;4.90;;
30553;SDS011;17335;50.720;7.452;2024-03-17T09:18:51;12.35;;;5.05;;
30553;SDS011;17335;50.720;7.452;2024-03-17T09:21:16;7.80;;;4.38;;
30553;SDS011;17335;50.720;7.452;2024-03-17T09:23:43;9.68;;;4.30;;
30553;SDS011;17335;50.720;7.452;2024-03-17T09:26:09;10.93;;;4.47;;
30553;SDS011;17335;50.720;7.452;2024-03-17T09:28:36;9.43;;;4.28;;
30553;SDS011;17335;50.720;7.452;2024-03-17T09:31:02;9.93;;;4.13;;
30553;SDS011;17335;50.720;7.452;2024-03-17T09:33:30;8.38;;;4.53;;
30553;SDS011;17335;50.720;7.452;2024-03-17T09:35:59;8.85;;;4.75;;
30553;SDS011;17335;50.720;7.452;2024-03-17T09:38:29;9.50;;;4.72;;
30553;SDS011;17335;50.720;7.452;2024-03-17T09:40:55;8.40;;;4.53;;
30553;SDS011;17335;50.720;7.452;2024-03-17T09:43:26;7.20;;;3.80;;
30553;SDS011;17335;50.720;7.452;2024-03-17T09:45:53;8.63;;;3.90;;
30553;SDS011;17335;50.720;7.452;2024-03-17T09:48:25;9.32;;;3.90;;
30553;SDS011;17335;50.720;7.452;2024-03-17T09:50:55;7.40;;;3.50;;
30553;SDS011;17335;50.720;7.452;2024-03-17T09:53:32;8.95;;;3.97;;
30553;SDS011;17335;50.720;7.452;2024-03-17T09:56:08;12.27;;;3.72;;
30553;SDS011;17335;50.720;7.452;2024-03-17T09:58:42;9.43;;;3.72;;
30553;SDS011;17335;50.720;7.452;2024-03-17T10:01:08;6.22;;;3.42;;
30553;SDS011;17335;50.720;7.452;2024-03-17T10:03:46;7.85;;;3.60;;
30553;SDS011;17335;50.720;7.452;2024-03-17T10:06:29;9.77;;;3.53;;
30553;SDS011;17335;50.720;7.452;2024-03-17T10:08:56;7.78;;;3.40;;
30553;SDS011;17335;50.720;7.452;2024-03-17T10:11:33;8.20;;;3.67;;
30553;SDS011;17335;50.720;7.452;2024-03-17T10:14:01;6.03;;;3.30;;
30553;SDS011;17335;50.720;7.452;2024-03-17T10:16:29;6.53;;;3.13;;
30553;SDS011;17335;50.720;7.452;2024-03-17T10:19:12;6.72;;;3.58;;
30553;SDS011;17335;50.720;7.452;2024-03-17T10:21:38;8.68;;;4.00;;
30553;SDS011;17335;50.720;7.452;2024-03-17T10:24:09;7.53;;;3.20;;
30553;SDS011;17335;50.720;7.452;2024-03-17T10:26:43;8.18;;;3.50;;
30553;SDS011;17335;50.720;7.452;2024-03-17T10:29:30;8.55;;;3.55;;
30553;SDS011;17335;50.720;7.452;2024-03-17T10:31:58;6.18;;;3.58;;
30553;SDS011;17335;50.720;7.452;2024-03-17T10:34:44;6.43;;;3.60;;
30553;SDS011;17335;50.720;7.452;2024-03-17T10:37:14;6.60;;;3.38;;
30553;SDS011;17335;50.720;7.452;2024-03-17T10:39:41;9.60;;;3.50;;
30553;SDS011;17335;50.720;7.452;2024-03-17T10:42:08;8.10;;;3.70;;
30553;SDS011;17335;50.720;7.452;2024-03-17T10:44:36;7.80;;;3.22;;
30553;SDS011;17335;50.720;7.452;2024-03-17T10:47:06;7.32;;;3.72;;
30553;SDS011;17335;50.720;7.452;2024-03-17T10:49:39;8.30;;;3.30;;
30553;SDS011;17335;50.720;7.452;2024-03-17T10:52:06;9.95;;;3.55;;
30553;SDS011;17335;50.720;7.452;2024-03-17T10:54:34;9.10;;;3.35;;
30553;SDS011;17335;50.720;7.452;2024-03-17T10:59:38;12.48;;;4.32;;
30553;SDS011;17335;50.720;7.452;2024-03-17T11:04:54;9.93;;;3.70;;
30553;SDS011;17335;50.720;7.452;2024-03-17T11:07:21;6.47;;;3.47;;
30553;SDS011;17335;50.720;7.452;2024-03-17T11:09:49;7.57;;;3.72;;
30553;SDS011;17335;50.720;7.452;2024-03-17T11:17:47;9.47;;;4.20;;
30553;SDS011;17335;50.720;7.452;2024-03-17T11:20:17;7.25;;;3.67;;
30553;SDS011;17335;50.720;7.452;2024-03-17T11:22:43;9.43;;;4.13;;
30553;SDS011;17335;50.720;7.452;2024-03-17T11:25:36;5.47;;;3.25;;
30553;SDS011;17335;50.720;7.452;2024-03-17T11:28:05;7.82;;;3.40;;
30553;SDS011;17335;50.720;7.452;2024-03-17T11:46:55;9.50;;;4.18;;
30553;SDS011;17335;50.720;7.452;2024-03-17T11:52:00;6.22;;;3.58;;
30553;SDS011;17335;50.720;7.452;2024-03-17T11:54:30;9.25;;;4.30;;
30553;SDS011;17335;50.720;7.452;2024-03-17T11:57:04;6.82;;;3.63;;
30553;SDS011;17335;50.720;7.452;2024-03-17T11:59:32;8.57;;;3.97;;
30553;SDS011;17335;50.720;7.452;2024-03-17T12:01:58;8.07;;;4.22;;
30553;SDS011;17335;50.720;7.452;2024-03-17T12:04:25;6.85;;;3.90;;
30553;SDS011;17335;50.720;7.452;2024-03-17T12:06:51;12.68;;;4.40;;
30553;SDS011;17335;50.720;7.452;2024-03-17T12:09:36;9.60;;;4.07;;
30553;SDS011;17335;50.720;7.452;2024-03-17T12:12:02;8.07;;;3.85;;
30553;SDS011;17335;50.720;7.452;2024-03-17T12:14:29;8.10;;;4.15;;
30553;SDS011;17335;50.720;7.452;2024-03-17T12:16:56;7.57;;;3.60;;
30553;SDS011;17335;50.720;7.452;2024-03-17T12:19:23;7.80;;;3.65;;
30553;SDS011;17335;50.720;7.452;2024-03-17T12:21:50;6.60;;;3.30;;
30553;SDS011;17335;50.720;7.452;2024-03-17T12:24:18;11.77;;;3.58;;
30553;SDS011;17335;50.720;7.452;2024-03-17T12:26:45;8.15;;;3.90;;
30553;SDS011;17335;50.720;7.452;2024-03-17T12:29:27;9.75;;;4.07;;
30553;SDS011;17335;50.720;7.452;2024-03-17T12:32:01;8.65;;;4.15;;
30553;SDS011;17335;50.720;7.452;2024-03-17T12:34:28;9.32;;;4.07;;
30553;SDS011;17335;50.720;7.452;2024-03-17T12:36:56;6.32;;;3.35;;
30553;SDS011;17335;50.720;7.452;2024-03-17T12:39:32;10.05;;;4.00;;
30553;SDS011;17335;50.720;7.452;2024-03-17T12:42:02;9.40;;;3.63;;
30553;SDS011;17335;50.720;7.452;2024-03-17T12:44:29;8.45;;;3.72;;
30553;SDS011;17335;50.720;7.452;2024-03-17T12:47:03;10.32;;;3.83;;
30553;SDS011;17335;50.720;7.452;2024-03-17T12:49:30;6.18;;;3.30;;
30553;SDS011;17335;50.720;7.452;2024-03-17T12:51:58;8.60;;;3.97;;
30553;SDS011;17335;50.720;7.452;2024-03-17T12:54:25;7.72;;;3.63;;
30553;SDS011;17335;50.720;7.452;2024-03-17T12:56:51;8.07;;;3.45;;
30553;SDS011;17335;50.720;7.452;2024-03-17T12:59:47;6.95;;;3.50;;
30553;SDS011;17335;50.720;7.452;2024-03-17T13:02:41;6.75;;;3.45;;
30553;SDS011;17335;50.720;7.452;2024-03-17T13:07:38;9.80;;;3.90;;
30553;SDS011;17335;50.720;7.452;2024-03-17T13:10:04;8.38;;;3.88;;
30553;SDS011;17335;50.720;7.452;2024-03-17T13:12:33;7.65;;;3.60;;
30553;SDS011;17335;50.720;7.452;2024-03-17T13:14:59;6.95;;;3.95;;
30553;SDS011;17335;50.720;7.452;2024-03-17T13:17:25;8.48;;;3.85;;
30553;SDS011;17335;50.720;7.452;2024-03-17T13:19:54;13.32;;;3.70;;
30553;SDS011;17335;50.720;7.452;2024-03-17T13:22:20;7.78;;;3.40;;
30553;SDS011;17335;50.720;7.452;2024-03-17T13:24:45;7.93;;;3.85;;
30553;SDS011;17335;50.720;7.452;2024-03-17T13:27:12;5.97;;;3.08;;
30553;SDS011;17335;50.720;7.452;2024-03-17T13:29:39;6.93;;;3.20;;
30553;SDS011;17335;50.720;7.452;2024-03-17T13:32:09;5.45;;;2.97;;
30553;SDS011;17335;50.720;7.452;2024-03-17T13:34:35;8.63;;;3.78;;
30553;SDS011;17335;50.720;7.452;2024-03-17T13:37:00;7.20;;;3.55;;
30553;SDS011;17335;50.720;7.452;2024-03-17T13:39:31;8.13;;;3.75;;
30553;SDS011;17335;50.720;7.452;2024-03-17T13:42:00;4.57;;;3.15;;
30553;SDS011;17335;50.720;7.452;2024-03-17T13:44:29;7.57;;;3.60;;
30553;SDS011;17335;50.720;7.452;2024-03-17T13:46:59;6.35;;;3.83;;
30553;SDS011;17335;50.720;7.452;2024-03-17T13:49:26;9.65;;;4.20;;
30553;SDS011;17335;50.720;7.452;2024-03-17T13:51:54;13.75;;;6.10;;
30553;SDS011;17335;50.720;7.452;2024-03-17T13:54:19;10.35;;;5.13;;
30553;SDS011;17335;50.720;7.452;2024-03-17T13:56:47;11.68;;;4.97;;
30553;SDS011;17335;50.720;7.452;2024-03-17T13:59:13;10.38;;;4.75;;
30553;SDS011;17335;50.720;7.452;2024-03-17T14:01:40;9.10;;;4.15;;
30553;SDS011;17335;50.720;7.452;2024-03-17T14:04:10;7.68;;;3.80;;
30553;SDS011;17335;50.720;7.452;2024-03-17T14:06:40;8.93;;;4.00;;
30553;SDS011;17335;50.720;7.452;2024-03-17T14:09:06;6.07;;;3.78;;
30553;SDS011;17335;50.720;7.452;2024-03-17T14:11:34;7.55;;;3.13;;
30553;SDS011;17335;50.720;7.452;2024-03-17T14:14:00;6.63;;;3.28;;
30553;SDS011;17335;50.720;7.452;2024-03-17T14:16:26;10.05;;;4.05;;
30553;SDS011;17335;50.720;7.452;2024-03-17T14:18:51;7.97;;;3.47;;
30553;SDS011;17335;50.720;7.452;2024-03-17T14:21:17;8.23;;;3.90;;
30553;SDS011;17335;50.720;7.452;2024-03-17T14:23:42;10.30;;;3.50;;
30553;SDS011;17335;50.720;7.452;2024-03-17T14:26:10;7.40;;;3.83;;
30553;SDS011;17335;50.720;7.452;2024-03-17T14:28:36;8.10;;;3.45;;
30553;SDS011;17335;50.720;7.452;2024-03-17T14:31:02;7.53;;;3.50;;
30553;SDS011;17335;50.720;7.452;2024-03-17T14:33:27;7.38;;;4.10;;
30553;SDS011;17335;50.720;7.452;2024-03-17T14:35:56;6.00;;;3.03;;
30553;SDS011;17335;50.720;7.452;2024-03-17T14:38:22;9.00;;;3.97;;
30553;SDS011;17335;50.720;7.452;2024-03-17T14:40:51;7.20;;;3.72;;
30553;SDS011;17335;50.720;7.452;2024-03-17T14:43:17;8.20;;;4.25;;
30553;SDS011;17335;50.720;7.452;2024-03-17T14:45:42;10.15;;;3.65;;
30553;SDS011;17335;50.720;7.452;2024-03-17T14:48:08;8.48;;;3.50;;
30553;SDS011;17335;50.720;7.452;2024-03-17T14:50:38;6.65;;;3.28;;
30553;SDS011;17335;50.720;7.452;2024-03-17T14:53:04;6.53;;;3.50;;
30553;SDS011;17335;50.720;7.452;2024-03-17T14:55:30;8.65;;;4.20;;
30553;SDS011;17335;50.720;7.452;2024-03-17T14:57:56;7.72;;;4.28;;
30553;SDS011;17335;50.720;7.452;2024-03-17T15:00:22;7.80;;;3.80;;
30553;SDS011;17335;50.720;7.452;2024-03-17T15:02:50;8.73;;;3.70;;
30553;SDS011;17335;50.720;7.452;2024-03-17T15:05:18;6.20;;;3.30;;
30553;SDS011;17335;50.720;7.452;2024-03-17T15:07:50;8.55;;;3.53;;
30553;SDS011;17335;50.720;7.452;2024-03-17T15:10:16;7.28;;;3.42;;
30553;SDS011;17335;50.720;7.452;2024-03-17T15:12:49;7.43;;;3.72;;
30553;SDS011;17335;50.720;7.452;2024-03-17T15:15:15;7.78;;;3.42;;
30553;SDS011;17335;50.720;7.452;2024-03-17T15:17:43;8.18;;;3.67;;
30553;SDS011;17335;50.720;7.452;2024-03-17T15:20:11;6.30;;;3.78;;